Terminal Aerodrome Forecast
Issued by NWS

Home | Current Version | Previous Version | Text Only | Print | Product List | Glossary On
Versions: 1 2 3 4 5 6 7 8 9 10 11 12 13 14 15
000
FTUS45 KFGZ 171100
TAFSEZ
TAF
KSEZ 171135Z 1712/1812 VRB05KT P6SM BKN040 BKN080
     FM171800 22006KT P6SM VCSH BKN050 OVC080
      TEMPO 1719/1723 3SM TSRA BKN030CB
     FM180300 VRB05KT P6SM SCT030 BKN110=

USA.gov is the U.S. government's official web portal to all federal, state and local government web resources and services.